Lenora, Kansas
Current Conditions -  °F | °C
As of 7:28 AM on Sunday 21 Dec 2014 (Local Time) from KHLC Reporting Station
Haze Haze  
Wind Chill: -3°   Ceiling: 500
Heat Index:   Visibility: 5mi
Dew Point: -2°   Wind: 5mph
Humidity: 88%   Direction: NA
Pressure: 29.85"   Gusts: NA
Location:  39.61°N, 100°W
Report Text: KHLC 211328Z AUTO VRB04KT 5SM BR BKN005 00/M02 A2985 RMK AO2 T00001017
Loading
Personal Weather Stations






























Interactive Weather Map New forecast layout! Learn more

10-Day Weather Forecast

Advertisements
Track Severe Weather on mobile